Spokane, WA (99211)

3:13 PM PDT on September 18, 2014 (GMT -0700)
I-90 & Sprague Ave | Change Station
CLOSE
Current Station
Personal Weather Station
Location: Spokane Valley, WA
Elevation: 1991 ft
Nearby Weather Stations

Elev 1991 ft 47.65 °N, 117.31 °W | Updated 21 seconds ago

Overcast
Overcast
80.4 °F
Feels Like 79 °F
N
1.3
Wind Variable Wind from West
Gusts 1.3 mph

Today
High -- | Low -- °F
--% Chance of Precip.
Yesterday
High -- | Low -- °F
Precip. -- in
6:30 AM 6:55 PM
Waning Crescent, 24% visible
Pressure 29.68 in
Visibility 9.0 miles
Clouds Overcast 8500 ft
Heat Index 79 °F
Dew Point 37 °F
Humidity 21%
Rainfall 0.00 in
Snow Depth 0 in , 0 in , 1 in
UV 0.0 out of 12
Pollen 7.40 out of 12
PM2.5 Moderate
Flu Activity Not available.
METAR KSFF 182153Z 24017KT 9SM OVC085 26/06 A2972 RMK AO2 SLP051 T02610056

More Conditions Fewer Conditions

Pressure 29.68 in
Visibility 9.0 miles
Clouds Overcast 8500 ft
Heat Index 79 °F
Dew Point 37 °F
Humidity 21%
Rainfall 0.00 in
Snow Depth 0 in , 0 in , 1 in
UV 0.0 out of 12
Pollen 7.40 out of 12
PM2.5 Moderate
Flu Activity Not available.
METAR KSFF 182153Z 24017KT 9SM OVC085 26/06 A2972 RMK AO2 SLP051 T02610056

More Conditions Fewer Conditions

10-Day Weather Forecast

Almanac

Astronomy

Sep. 18, 2014 Rise Set
Actual Time 6:30 AM PDT 6:55 PM PDT
Civil Twilight 5:59 AM PDT 7:25 PM PDT
Nautical Twilight 5:23 AM PDT 8:02 PM PDT
Astronomical Twilight 4:45 AM PDT 8:40 PM PDT
Moon 1:10 AM PDT 4:04 PM PDT
Length of Visible Light 13h 26m
Length of Day
12h 24m
Tomorrow will be 3m 24s shorter.
Waning Crescent, 24% of the Moon is Illuminated
Today
Waning Crescent
Sep 24
New
Oct 1
First Quarter
Oct 8
Full
Oct 15
Last Quarter

Today's Extremes

State Highs State Lows

Community

WunderPhotos

Upload Photos

1,754,457 photos uploaded!

WunderBlogs® & News

Nearby

Air Quality

  Air Quality AQ Index Pollutant
Yesterday Good
PM10
Yesterday Good
OZONE
Current Moderate
PM2.5
Thursday Good
PM10
Thursday Good
OZONE
Friday Good
PM10
Friday Good
OZONE

Snow Depth

Station Depth Elevation
Skookum Creek 0 in 3920 ft
Grouse Camp 0 in 5380 ft
Moses Mountain 1 in 5300 ft
Fish Lake 0 in 3371 ft
Quartz Peak 1 in 4700 ft

Earthquake Activity

City Distance Mag. Time & Date
No recent earthquake activity has been reported nearby.
Minimum magnitude displayed is 2.5.

Coastal Water Temperatures

Place Temperature
No Stations Reporting

Nearby Weather Stations